Fort Worth - NOAA's Hourly Summary for Monday, March 13, 2017
Hour Temp
(f)
RH
(%)
Solar Rad.
(MJ/m2)
Rainfall
(in)
Wind
(mph)
3/13/2017 12:00 AM 48 83 0 0 2.46
3/13/2017 1:00 AM 48 84 0 0 2.33
3/13/2017 2:00 AM 49 85 0 0 4.19
3/13/2017 3:00 AM 49 88 0 0 4.51
3/13/2017 4:00 AM 48 90 0 0.02 3.07
3/13/2017 5:00 AM 49 93 0 0 4.63
3/13/2017 6:00 AM 49 92 0 0 6.29
3/13/2017 7:00 AM 49 90 0 0 6.15
3/13/2017 8:00 AM 49 88 0.06 0 4.78
3/13/2017 9:00 AM 50 84 0.38 0 5.14
3/13/2017 10:00 AM 53 75 1.28 0 10.25
3/13/2017 11:00 AM 54 68 1.67 0 12.34
3/13/2017 12:00 PM 57 63 2.18 0 14.03
3/13/2017 1:00 PM 59 56 2.83 0 11.67
3/13/2017 2:00 PM 62 46 2.91 0 12.58
3/13/2017 3:00 PM 63 37 2.7 0 14.13
3/13/2017 4:00 PM 62 33 2.18 0 13.81
3/13/2017 5:00 PM 62 33 1.55 0 14.67
3/13/2017 6:00 PM 60 33 0.79 0 13.69
3/13/2017 7:00 PM 56 31 0.13 0 10.82
3/13/2017 8:00 PM 52 32 0 0 10.59
3/13/2017 9:00 PM 50 32 0 0 10.99
3/13/2017 10:00 PM 48 35 0 0 8.37
3/13/2017 11:00 PM 46 39 0 0 8.12
Data Summary 53 62 18.66 0.02 8.73